Time;durP1;ratioP1;P1;durP2;ratioP2;P2;SDS_P1;SDS_P2;PMS_P1;PMS_P2;Temp;Humidity;BMP_temperature;BMP_pressure;BME280_temperature;BME280_humidity;BME280_pressure;Samples;Min_cycle;Max_cycle;Signal;HPM_P1;HPM_P2
2023/08/19 00:01:03;;;;;;;110.65;54.53;;;;;;;21.52;100.00;100921.72;5079488;28;20138;-80
2023/08/19 00:03:29;;;;;;;112.75;55.67;;;;;;;21.42;100.00;100916.38;5084398;28;20382;-79
2023/08/19 00:05:55;;;;;;;93.25;50.38;;;;;;;21.47;100.00;100911.97;5087108;28;20504;-80
2023/08/19 00:08:20;;;;;;;121.55;59.20;;;;;;;21.44;100.00;100914.25;5058941;28;20081;-80
2023/08/19 00:10:51;;;;;;;126.43;58.92;;;;;;;21.45;100.00;100905.72;5050372;28;20032;-80
2023/08/19 00:13:18;;;;;;;125.22;58.55;;;;;;;21.51;100.00;100911.59;5084719;28;20032;-80
2023/08/19 00:15:44;;;;;;;129.27;57.20;;;;;;;21.47;100.00;100906.41;5090339;28;20475;-80
2023/08/19 00:18:09;;;;;;;116.43;57.65;;;;;;;21.46;100.00;100909.34;5067644;28;20119;-80
2023/08/19 00:20:35;;;;;;;125.53;58.00;;;;;;;21.52;100.00;100899.41;5090195;28;20028;-80
2023/08/19 00:23:00;;;;;;;130.05;63.15;;;;;;;21.40;100.00;100901.78;5068323;28;20486;-80
2023/08/19 00:25:26;;;;;;;134.55;62.78;;;;;;;21.30;100.00;100897.34;5077252;28;20142;-80
2023/08/19 00:27:52;;;;;;;129.77;64.75;;;;;;;21.37;100.00;100902.16;5080207;28;20071;-80
2023/08/19 00:30:18;;;;;;;122.80;57.60;;;;;;;21.38;100.00;100893.63;5086204;28;20119;-80
2023/08/19 00:32:44;;;;;;;127.45;60.00;;;;;;;21.29;100.00;100897.53;5087264;28;20024;-80
2023/08/19 00:35:10;;;;;;;145.77;65.72;;;;;;;21.18;100.00;100892.44;5088228;28;20050;-80
2023/08/19 00:37:35;;;;;;;138.52;63.83;;;;;;;21.32;100.00;100901.84;5070067;28;20020;-80
2023/08/19 00:40:04;;;;;;;128.15;56.95;;;;;;;21.25;100.00;100896.19;5072907;28;20413;-80
2023/08/19 00:42:29;;;;;;;120.93;59.30;;;;;;;21.28;100.00;100902.25;5085697;28;21762;-80
2023/08/19 00:44:56;;;;;;;136.70;63.72;;;;;;;21.25;100.00;100898.97;5085796;28;20784;-80
2023/08/19 00:47:25;;;;;;;120.18;56.88;;;;;;;21.36;100.00;100894.84;5084911;28;20020;-80
2023/08/19 00:49:51;;;;;;;118.07;57.25;;;;;;;21.45;100.00;100904.88;5083978;28;20085;-80
2023/08/19 00:52:18;;;;;;;116.60;56.92;;;;;;;21.45;100.00;100905.72;5082612;28;20103;-80
2023/08/19 00:54:43;;;;;;;132.20;61.33;;;;;;;21.48;100.00;100905.38;5089326;28;21246;-80
2023/08/19 00:57:09;;;;;;;116.55;54.33;;;;;;;21.44;100.00;100903.13;5061172;28;20060;-80
2023/08/19 00:59:34;;;;;;;135.55;63.90;;;;;;;21.47;100.00;100895.25;5085927;28;20505;-80
2023/08/19 01:02:00;;;;;;;140.20;60.65;;;;;;;21.47;100.00;100898.06;5082646;28;20040;-80
2023/08/19 01:04:25;;;;;;;126.75;61.42;;;;;;;21.38;100.00;100892.72;5056772;28;20032;-80
2023/08/19 01:07:10;;;;;;;135.38;61.40;;;;;;;21.37;100.00;100894.66;5054087;28;20020;-80
2023/08/19 01:09:43;;;;;;;134.48;62.78;;;;;;;21.35;100.00;100898.69;5076572;28;20106;-80
2023/08/19 01:12:11;;;;;;;136.05;65.90;;;;;;;21.26;100.00;100890.41;5085475;28;20382;-81
2023/08/19 01:15:01;;;;;;;141.73;65.00;;;;;;;21.29;100.00;100897.53;5088108;28;20028;-80
2023/08/19 01:17:29;;;;;;;132.77;64.63;;;;;;;21.24;100.00;100891.69;5088378;28;20397;-79
2023/08/19 01:19:57;;;;;;;138.90;60.25;;;;;;;21.30;100.00;100896.50;5083431;28;20020;-79
2023/08/19 01:22:37;;;;;;;131.27;63.53;;;;;;;21.33;100.00;100896.09;5083655;28;20020;-78
2023/08/19 01:25:04;;;;;;;130.85;58.83;;;;;;;21.33;100.00;100896.09;5080118;28;20055;-79
2023/08/19 01:27:30;;;;;;;117.68;57.55;;;;;;;21.51;100.00;100889.31;5087601;28;20055;-79
2023/08/19 01:29:55;;;;;;;130.80;61.63;;;;;;;21.43;100.00;100885.56;5070940;28;20035;-79
2023/08/19 01:32:23;;;;;;;138.70;63.72;;;;;;;21.35;100.00;100894.00;5077635;28;20525;-79
2023/08/19 01:34:49;;;;;;;150.23;66.45;;;;;;;21.33;100.00;100887.72;5079191;28;20482;-79
2023/08/19 01:37:25;;;;;;;146.68;66.60;;;;;;;21.41;100.00;100886.78;5085247;28;20093;-79
2023/08/19 01:39:53;;;;;;;143.98;62.50;;;;;;;21.59;100.00;100881.72;5084100;28;20028;-79
2023/08/19 01:42:20;;;;;;;128.13;59.33;;;;;;;21.50;100.00;100884.78;5086293;28;20038;-79
2023/08/19 01:44:46;;;;;;;144.13;63.70;;;;;;;21.46;100.00;100875.94;5070304;28;20416;-79
2023/08/19 01:47:16;;;;;;;133.50;60.35;;;;;;;21.47;100.00;100875.75;5083646;28;20016;-79
2023/08/19 01:49:46;;;;;;;128.98;60.58;;;;;;;21.53;100.00;100876.03;5078654;28;20028;-79
2023/08/19 01:52:13;;;;;;;134.93;62.40;;;;;;;21.45;100.00;100874.22;5080366;28;20509;-79
2023/08/19 01:54:39;;;;;;;142.77;62.83;;;;;;;21.42;100.00;100869.03;5086595;28;20052;-79
2023/08/19 01:57:05;;;;;;;125.65;59.42;;;;;;;21.50;100.00;100863.38;5081707;28;20025;-79
2023/08/19 01:59:32;;;;;;;129.00;57.97;;;;;;;21.41;100.00;100853.34;5083573;28;20130;-79
2023/08/19 02:01:58;;;;;;;130.02;59.17;;;;;;;21.44;100.00;100847.41;5091343;28;20095;-79
2023/08/19 02:04:24;;;;;;;115.40;52.95;;;;;;;21.47;100.00;100856.25;5081643;28;20107;-79
2023/08/19 02:06:49;;;;;;;111.65;51.72;;;;;;;21.53;100.00;100845.41;5080597;28;20039;-79
2023/08/19 02:09:14;;;;;;;115.28;52.15;;;;;;;21.48;100.00;100854.38;5085359;28;20033;-79
2023/08/19 02:11:40;;;;;;;119.93;50.67;;;;;;;21.50;100.00;100845.78;5071367;28;20051;-79
2023/08/19 02:14:05;;;;;;;112.10;49.17;;;;;;;21.56;100.00;100851.47;5064206;28;20032;-79
2023/08/19 02:16:31;;;;;;;132.25;51.53;;;;;;;21.59;100.00;100844.63;5069737;28;20435;-79
2023/08/19 02:19:00;;;;;;;99.47;46.58;;;;;;;21.71;100.00;100843.09;5068886;28;20028;-79
2023/08/19 02:21:26;;;;;;;94.25;44.22;;;;;;;21.71;100.00;100851.44;5088721;28;20193;-79
2023/08/19 02:23:51;;;;;;;103.25;46.38;;;;;;;21.72;100.00;100846.72;5082445;28;20538;-79
2023/08/19 02:26:17;;;;;;;100.32;45.97;;;;;;;21.73;100.00;100843.75;5079974;28;20137;-79
2023/08/19 02:28:43;;;;;;;105.97;46.03;;;;;;;21.73;100.00;100837.31;5066234;28;20118;-79
2023/08/19 02:31:08;;;;;;;89.75;43.70;;;;;;;21.69;100.00;100830.38;5079984;28;20080;-79
2023/08/19 02:33:34;;;;;;;81.68;40.15;;;;;;;21.72;100.00;100832.78;5079126;28;20394;-79
2023/08/19 02:35:59;;;;;;;78.15;40.92;;;;;;;21.76;100.00;100829.41;5083511;28;20073;-79
2023/08/19 02:38:26;;;;;;;92.97;41.47;;;;;;;21.75;100.00;100826.81;5087490;28;20024;-79
2023/08/19 02:40:52;;;;;;;83.15;40.88;;;;;;;21.80;100.00;100836.31;5078831;28;20036;-79
2023/08/19 02:43:18;;;;;;;97.18;43.90;;;;;;;21.77;100.00;100821.91;5082401;28;20498;-79
2023/08/19 02:45:45;;;;;;;85.53;41.17;;;;;;;21.77;100.00;100821.91;5081766;28;20028;-80
2023/08/19 02:48:12;;;;;;;88.75;40.63;;;;;;;21.69;100.00;100814.53;5083638;28;20112;-79
2023/08/19 02:50:38;;;;;;;86.45;40.08;;;;;;;21.74;100.00;100825.97;5069659;28;20016;-80
2023/08/19 02:53:03;;;;;;;87.15;42.13;;;;;;;21.70;100.00;100821.84;5080160;28;20047;-80
2023/08/19 02:55:28;;;;;;;83.20;41.60;;;;;;;21.71;100.00;100825.47;5062022;28;20039;-79
2023/08/19 02:57:54;;;;;;;90.78;42.85;;;;;;;21.62;100.00;100821.94;5079212;28;20368;-79
2023/08/19 03:00:19;;;;;;;78.22;38.67;;;;;;;21.62;100.00;100825.59;5080611;28;20036;-79
2023/08/19 03:02:46;;;;;;;77.72;37.67;;;;;;;21.72;100.00;100814.13;5067916;28;20036;-79
2023/08/19 03:05:13;;;;;;;80.07;36.17;;;;;;;21.74;100.00;100823.19;5083980;28;20024;-80
2023/08/19 03:07:38;;;;;;;91.47;40.70;;;;;;;21.67;100.00;100822.22;5078202;28;20022;-79
2023/08/19 03:10:04;;;;;;;86.70;40.55;;;;;;;21.72;100.00;100827.22;5083284;28;20028;-79
2023/08/19 03:12:30;;;;;;;82.30;37.45;;;;;;;21.71;100.00;100829.16;5087987;28;20103;-79
2023/08/19 03:14:55;;;;;;;73.95;36.55;;;;;;;21.77;100.00;100814.41;5090694;28;20470;-79
2023/08/19 03:17:21;;;;;;;78.03;35.70;;;;;;;21.81;100.00;100820.47;5084778;28;20028;-79
2023/08/19 03:19:48;;;;;;;79.75;35.60;;;;;;;21.80;100.00;100825.16;5085163;28;20031;-79
2023/08/19 03:22:14;;;;;;;74.90;34.53;;;;;;;21.76;100.00;100829.41;5070184;28;20406;-80
2023/08/19 03:24:39;;;;;;;89.47;34.38;;;;;;;21.85;100.00;100824.59;5092591;28;20024;-80
2023/08/19 03:27:06;;;;;;;64.03;32.15;;;;;;;21.84;100.00;100823.72;5065000;28;20044;-79
2023/08/19 03:29:32;;;;;;;71.03;33.33;;;;;;;21.92;100.00;100816.28;5066883;28;20030;-78
2023/08/19 03:31:59;;;;;;;65.60;31.48;;;;;;;21.90;100.00;100808.13;5088108;28;20119;-78
2023/08/19 03:34:27;;;;;;;64.68;31.88;;;;;;;21.96;100.00;100809.28;5074131;28;20118;-79
2023/08/19 03:36:53;;;;;;;64.93;30.48;;;;;;;21.95;100.00;100804.75;5083742;28;20138;-79
2023/08/19 03:39:18;;;;;;;56.30;29.02;;;;;;;21.97;100.00;100808.19;5077541;28;20036;-79
2023/08/19 03:41:44;;;;;;;66.50;29.42;;;;;;;22.00;100.00;100810.59;5089222;28;20040;-79
2023/08/19 03:44:09;;;;;;;54.47;27.55;;;;;;;21.97;100.00;100810.97;5068132;28;20035;-79
2023/08/19 03:46:35;;;;;;;55.60;26.58;;;;;;;21.96;100.00;100812.06;5066604;28;20020;-79
2023/08/19 03:49:00;;;;;;;51.53;26.15;;;;;;;22.14;100.00;100819.97;5086952;28;20151;-79
2023/08/19 03:51:26;;;;;;;64.25;28.23;;;;;;;22.10;100.00;100810.25;5085456;28;20032;-79
2023/08/19 03:53:53;;;;;;;56.45;27.50;;;;;;;22.05;100.00;100804.44;5066845;28;20086;-79
2023/08/19 03:56:19;;;;;;;57.08;25.35;;;;;;;22.06;100.00;100804.22;5068296;28;20032;-79
2023/08/19 03:58:48;;;;;;;51.65;26.02;;;;;;;22.04;100.00;100803.56;5070522;28;20862;-80
2023/08/19 04:01:13;;;;;;;58.33;26.50;;;;;;;22.04;100.00;100809.16;5087242;28;20487;-79
2023/08/19 04:03:39;;;;;;;49.80;23.50;;;;;;;22.05;100.00;100810.00;5090054;28;20081;-79
2023/08/19 04:06:04;;;;;;;51.50;24.35;;;;;;;22.11;100.00;100810.06;5088246;28;20039;-79
2023/08/19 04:08:30;;;;;;;55.17;23.90;;;;;;;22.15;100.00;100810.53;5092163;28;20076;-80
2023/08/19 04:11:07;;;;;;;51.97;22.33;;;;;;;22.19;100.00;100804.34;5047102;28;20108;-79
2023/08/19 04:13:33;;;;;;;46.85;24.33;;;;;;;22.19;100.00;100809.94;5089301;28;20028;-79
2023/08/19 04:16:05;;;;;;;46.53;22.58;;;;;;;22.14;100.00;100814.41;5084357;28;20398;-79
2023/08/19 04:18:32;;;;;;;43.92;21.73;;;;;;;22.19;100.00;100812.72;5082961;28;20041;-79
2023/08/19 04:21:01;;;;;;;51.35;22.27;;;;;;;22.23;100.00;100813.19;5090606;28;20038;-79
2023/08/19 04:23:26;;;;;;;51.33;22.08;;;;;;;22.19;100.00;100812.72;5067750;28;20028;-80
2023/08/19 04:25:54;;;;;;;46.95;22.02;;;;;;;22.20;100.00;100819.16;5060841;28;20101;-80
2023/08/19 04:28:20;;;;;;;42.50;21.13;;;;;;;22.24;100.00;100812.13;5091306;28;20028;-80
2023/08/19 04:30:45;;;;;;;44.22;22.02;;;;;;;22.20;100.00;100819.16;5072402;28;20043;-80
2023/08/19 04:33:11;;;;;;;44.22;21.77;;;;;;;22.19;100.00;100817.44;5072748;28;20032;-79
2023/08/19 04:35:36;;;;;;;47.45;20.55;;;;;;;22.27;100.00;100816.44;5067862;28;20031;-80
2023/08/19 04:38:03;;;;;;;47.35;20.65;;;;;;;22.21;100.00;100820.91;5071816;28;20036;-80
2023/08/19 04:40:30;;;;;;;40.17;19.38;;;;;;;22.21;100.00;100810.59;5086818;28;20054;-80
2023/08/19 04:42:57;;;;;;;42.00;20.67;;;;;;;22.23;100.00;100821.56;5078403;28;20028;-80
2023/08/19 04:45:23;;;;;;;44.67;20.58;;;;;;;22.27;100.00;100814.53;5088223;28;20415;-80
2023/08/19 04:47:49;;;;;;;40.80;19.75;;;;;;;22.25;100.00;100827.81;5086556;28;20028;-80
2023/08/19 04:50:15;;;;;;;41.13;19.67;;;;;;;22.23;100.00;100832.72;5064749;28;20027;-80
2023/08/19 04:52:40;;;;;;;39.55;19.17;;;;;;;22.25;100.00;100829.72;5056435;28;20112;-80
2023/08/19 04:55:07;;;;;;;44.50;19.63;;;;;;;22.29;100.00;100839.47;5084418;28;20036;-78
2023/08/19 04:57:32;;;;;;;56.55;19.48;;;;;;;22.28;100.00;100840.50;5069523;28;20115;-79
2023/08/19 04:59:59;;;;;;;43.85;19.48;;;;;;;22.24;100.00;100831.66;5083073;28;20136;-78
2023/08/19 05:02:24;;;;;;;35.75;18.88;;;;;;;22.24;100.00;100839.16;5081618;28;20075;-78
2023/08/19 05:04:50;;;;;;;44.78;19.05;;;;;;;22.26;100.00;100834.25;5083049;28;20036;-79
2023/08/19 05:07:17;;;;;;;39.00;18.35;;;;;;;22.23;100.00;100837.44;5090704;28;20032;-79
2023/08/19 05:09:42;;;;;;;48.05;19.77;;;;;;;22.23;100.00;100837.44;5089748;28;20104;-89
2023/08/19 05:12:08;;;;;;;36.65;18.63;;;;;;;22.18;100.00;100838.03;5057045;28;20108;-90
2023/08/19 05:14:34;;;;;;;39.55;19.05;;;;;;;22.11;100.00;100837.97;5090682;28;20031;-88
2023/08/19 05:16:59;;;;;;;37.40;18.63;;;;;;;22.15;100.00;100842.09;5085159;28;20102;-90
2023/08/19 05:19:26;;;;;;;46.67;19.00;;;;;;;22.17;100.00;100837.16;5098057;28;20034;-89
2023/08/19 05:21:51;;;;;;;37.05;18.20;;;;;;;22.17;100.00;100831.59;5088583;28;20028;-86
2023/08/19 05:24:18;;;;;;;37.42;18.77;;;;;;;22.16;100.00;100831.78;5081700;28;20068;-89
2023/08/19 05:26:47;;;;;;;39.33;19.33;;;;;;;22.17;100.00;100831.59;5071676;28;20044;-90
2023/08/19 05:29:15;;;;;;;40.13;18.50;;;;;;;22.17;100.00;100827.94;5078991;28;20024;-87
2023/08/19 05:31:41;;;;;;;34.28;18.15;;;;;;;22.22;100.00;100836.59;5077073;28;20079;-87
2023/08/19 05:34:08;;;;;;;36.53;17.90;;;;;;;22.26;100.00;100842.63;5072870;28;20395;-91
2023/08/19 05:36:33;;;;;;;42.47;18.30;;;;;;;22.25;100.00;100832.50;5070584;28;20479;-91
2023/08/19 05:38:59;;;;;;;40.28;19.10;;;;;;;22.27;100.00;100838.75;5056859;28;20118;-88
2023/08/19 05:41:24;;;;;;;41.22;17.58;;;;;;;22.29;100.00;100843.13;5070269;28;20141;-89
2023/08/19 05:43:50;;;;;;;46.85;18.63;;;;;;;22.28;100.00;100841.34;5092097;28;20473;-88
2023/08/19 05:46:16;;;;;;;53.05;18.48;;;;;;;22.26;100.00;100845.41;5100242;28;20039;-89
2023/08/19 05:48:43;;;;;;;41.28;18.02;;;;;;;22.20;100.00;100864.66;5075586;28;20020;-90
2023/08/19 05:51:11;;;;;;;37.53;18.00;;;;;;;22.19;100.00;100864.88;5072240;28;20035;-88
2023/08/19 05:53:38;;;;;;;41.90;19.38;;;;;;;22.26;100.00;100862.16;5069660;28;20440;-90
2023/08/19 05:56:05;;;;;;;33.42;18.27;;;;;;;22.24;100.00;100859.56;5077905;28;20043;-89
2023/08/19 05:58:30;;;;;;;40.50;16.65;;;;;;;22.29;100.00;100870.16;5101967;28;20024;-88
2023/08/19 06:00:59;;;;;;;42.50;17.23;;;;;;;22.29;100.00;100870.16;5090375;28;20039;-86
2023/08/19 06:03:24;;;;;;;44.90;17.83;;;;;;;22.28;100.00;100866.44;5094028;28;20040;-89
2023/08/19 06:05:50;;;;;;;36.58;16.45;;;;;;;22.29;100.00;100868.22;5083667;28;20113;-87
2023/08/19 06:08:17;;;;;;;34.53;17.00;;;;;;;22.35;100.00;100870.22;5080605;28;20035;-89
2023/08/19 06:10:44;;;;;;;43.22;16.50;;;;;;;22.47;100.00;100867.75;5080307;28;20031;-85
2023/08/19 06:13:14;;;;;;;37.25;17.48;;;;;;;22.48;100.00;100871.41;5088364;28;20032;-88
2023/08/19 06:15:40;;;;;;;37.72;15.85;;;;;;;22.62;100.00;100861.25;5052105;28;20486;-86
2023/08/19 06:18:09;;;;;;;30.33;15.95;;;;;;;22.65;100.00;100863.63;5090856;28;20042;-85
2023/08/19 06:20:36;;;;;;;40.25;17.50;;;;;;;22.74;100.00;100866.09;5076104;28;20526;-87
2023/08/19 06:23:02;;;;;;;41.42;16.17;;;;;;;22.88;100.00;100861.47;5078655;28;20029;-85
2023/08/19 06:25:27;;;;;;;33.38;15.65;;;;;;;22.98;100.00;100863.91;5071890;28;20085;-84
2023/08/19 06:27:52;;;;;;;33.80;15.98;;;;;;;23.10;100.00;100858.63;5071794;28;20032;-87
2023/08/19 06:30:19;;;;;;;31.85;14.93;;;;;;;23.21;100.00;100855.28;5081498;28;20036;-86
2023/08/19 06:32:45;;;;;;;34.95;14.88;;;;;;;23.29;100.00;100859.84;5057908;28;20028;-86
2023/08/19 06:35:11;;;;;;;49.03;15.88;;;;;;;23.40;100.00;100853.69;5091078;28;20042;-88
2023/08/19 06:37:41;;;;;;;33.97;14.38;;;;;;;23.47;100.00;100862.94;5091118;28;20037;-88
2023/08/19 06:40:15;;;;;;;35.55;14.35;;;;;;;23.60;100.00;100864.13;5092702;28;20036;-88
2023/08/19 06:42:42;;;;;;;33.03;14.32;;;;;;;23.69;100.00;100868.44;5084127;28;20035;-89
2023/08/19 06:45:08;;;;;;;29.17;13.38;;;;;;;23.69;100.00;100882.41;5090882;28;20063;-94
2023/08/19 06:47:37;;;;;;;30.95;14.38;;;;;;;23.67;100.00;100881.75;5085097;28;21967;-88
2023/08/19 06:50:03;;;;;;;36.53;14.27;;;;;;;23.60;100.00;100884.53;5085331;28;20083;-88
2023/08/19 06:52:29;;;;;;;30.10;14.32;;;;;;;23.72;100.00;100883.94;5073936;28;20516;-90
2023/08/19 06:54:57;;;;;;;31.02;15.18;;;;;;;23.71;100.00;100894.28;5089778;28;20036;-88
2023/08/19 06:57:47;;;;;;;38.85;14.73;;;;;;;23.68;100.00;100894.69;5084884;28;20035;-88
2023/08/19 07:00:13;;;;;;;31.48;14.40;;;;;;;23.73;100.00;100894.94;5078969;28;20036;-86
2023/08/19 07:02:41;;;;;;;40.00;15.15;;;;;;;23.77;100.00;100896.22;5082355;28;20055;-86
2023/08/19 07:05:15;;;;;;;26.75;13.77;;;;;;;23.85;100.00;100900.81;5081247;28;20122;-90
2023/08/19 07:07:48;;;;;;;30.90;14.50;;;;;;;23.86;100.00;100899.75;5093500;28;20034;-87
2023/08/19 07:10:19;;;;;;;35.65;15.23;;;;;;;23.82;100.00;100893.69;5084422;28;20032;-85
2023/08/19 07:12:45;;;;;;;41.28;15.93;;;;;;;23.99;100.00;100910.09;5083221;28;20039;-85
2023/08/19 07:15:12;;;;;;;41.83;16.10;;;;;;;23.98;100.00;100908.41;5068655;28;20455;-83
2023/08/19 07:17:46;;;;;;;38.50;15.82;;;;;;;24.07;100.00;100909.97;5080515;28;20032;-83
2023/08/19 07:20:20;;;;;;;28.08;15.25;;;;;;;24.12;100.00;100918.59;5086250;28;20012;-83
2023/08/19 07:22:48;;;;;;;34.45;15.45;;;;;;;24.18;100.00;100911.28;5080621;28;20036;-84
2023/08/19 07:25:15;;;;;;;47.67;17.00;;;;;;;24.28;100.00;100917.31;5081789;28;20044;-83
2023/08/19 07:27:44;;;;;;;34.67;15.65;;;;;;;24.33;100.00;100927.88;5078482;28;20115;-83
2023/08/19 07:30:11;;;;;;;34.15;15.70;;;;;;;24.44;100.00;100927.28;5082804;28;20482;-79
2023/08/19 07:32:39;;;;;;;35.85;16.08;;;;;;;24.57;100.00;100929.28;5083908;28;20391;-80
2023/08/19 07:35:06;;;;;;;27.48;14.70;;;;;;;24.65;100.00;100928.22;5086443;28;20024;-79
2023/08/19 07:37:32;;;;;;;33.17;14.57;;;;;;;24.70;100.00;100929.28;5077819;28;20059;-80
2023/08/19 07:39:58;;;;;;;27.35;13.70;;;;;;;24.86;100.00;100935.53;5082826;28;20396;-80
2023/08/19 07:42:25;;;;;;;27.85;13.65;;;;;;;24.89;100.00;100940.72;5087633;28;20082;-80
2023/08/19 07:44:50;;;;;;;35.15;13.48;;;;;;;24.87;100.00;100938.13;5085529;28;20070;-81
2023/08/19 07:47:16;;;;;;;31.83;12.75;;;;;;;24.93;100.00;100939.22;5082484;28;20051;-82
2023/08/19 07:49:41;;;;;;;35.17;13.07;;;;;;;25.04;100.00;100938.59;5086416;28;20028;-80
2023/08/19 07:52:07;;;;;;;30.40;12.48;;;;;;;25.16;100.00;100933.19;5083818;28;20110;-80
2023/08/19 07:54:33;;;;;;;28.20;13.35;;;;;;;25.24;100.00;100937.72;5085654;28;20028;-80
2023/08/19 07:56:59;;;;;;;30.90;13.13;;;;;;;25.40;100.00;100947.63;5054309;28;20434;-80
2023/08/19 07:59:25;;;;;;;28.17;13.32;;;;;;;25.39;100.00;100948.75;5088876;28;20063;-81
2023/08/19 08:01:52;;;;;;;31.23;13.02;;;;;;;25.38;100.00;100952.63;5091886;28;20379;-81
2023/08/19 08:04:17;;;;;;;23.40;12.60;;;;;;;25.43;100.00;100952.81;5083256;28;20040;-80
2023/08/19 08:06:43;;;;;;;38.85;14.65;;;;;;;25.55;100.00;100945.47;5072308;28;20024;-80
2023/08/19 08:09:08;;;;;;;35.83;13.90;;;;;;;25.56;100.00;100957.56;5094745;28;20043;-79
2023/08/19 08:11:34;;;;;;;34.28;14.80;;;;;;;25.45;100.00;100965.56;5087981;28;20167;-80
2023/08/19 08:13:59;;;;;;;36.20;14.30;;;;;;;25.33;100.00;100969.22;5092020;28;20028;-81
2023/08/19 08:16:25;;;;;;;35.13;15.43;;;;;;;25.36;100.00;100968.78;5091696;28;20399;-81
2023/08/19 08:18:50;;;;;;;29.92;16.13;;;;;;;25.27;100.00;100962.56;5085612;28;20028;-80
2023/08/19 08:21:18;;;;;;;32.42;15.30;;;;;;;25.20;100.00;100954.09;5075443;28;20402;-80
2023/08/19 08:23:44;;;;;;;35.22;17.05;;;;;;;25.27;100.00;100956.94;5088612;28;20047;-80
2023/08/19 08:26:10;;;;;;;26.75;15.40;;;;;;;25.25;100.00;100943.13;5083882;28;20131;-80
2023/08/19 08:28:36;;;;;;;30.30;16.10;;;;;;;25.13;100.00;100950.44;5066691;28;20065;-81
2023/08/19 08:31:02;;;;;;;35.63;16.45;;;;;;;24.96;100.00;100952.81;5072306;28;20060;-80
2023/08/19 08:33:27;;;;;;;34.92;17.08;;;;;;;24.88;100.00;100975.44;5067759;28;20120;-80
2023/08/19 08:35:52;;;;;;;29.25;16.50;;;;;;;24.99;100.00;100973.91;5079602;28;20138;-80
2023/08/19 08:38:19;;;;;;;43.13;15.98;;;;;;;25.04;100.00;100985.34;5087775;28;20398;-81
2023/08/19 08:40:44;;;;;;;29.85;15.55;;;;;;;25.01;100.00;100988.59;5085499;28;20032;-82
2023/08/19 08:43:10;;;;;;;35.83;15.73;;;;;;;25.16;100.00;100977.19;5073035;28;20028;-83
2023/08/19 08:45:35;;;;;;;26.77;14.80;;;;;;;25.12;100.00;100976.72;5085901;28;20448;-83
2023/08/19 08:48:02;;;;;;;28.98;15.13;;;;;;;25.17;100.00;100982.56;5067919;28;20043;-83
2023/08/19 08:50:28;;;;;;;28.02;15.30;;;;;;;25.01;100.00;100997.84;5089679;28;20121;-83
2023/08/19 08:52:54;;;;;;;33.60;17.08;;;;;;;25.20;100.00;100986.88;5067457;28;20115;-83
2023/08/19 08:55:20;;;;;;;31.73;16.15;;;;;;;25.13;100.00;101006.47;5085520;28;20036;-84
2023/08/19 08:57:45;;;;;;;26.92;15.85;;;;;;;25.09;100.00;101002.41;5086112;28;20032;-84
2023/08/19 09:00:12;;;;;;;30.27;15.68;;;;;;;25.05;100.00;101026.31;5068806;28;20054;-84
2023/08/19 09:02:40;;;;;;;33.70;16.23;;;;;;;24.95;100.00;101037.94;5081173;28;20036;-84
2023/08/19 09:05:06;;;;;;;32.55;17.00;;;;;;;24.86;100.00;101030.78;5088410;28;20060;-85
2023/08/19 09:07:37;;;;;;;32.83;17.58;;;;;;;24.96;100.00;101008.84;5084944;28;20072;-84
2023/08/19 09:10:09;;;;;;;33.30;16.63;;;;;;;24.87;100.00;100999.75;5078732;28;20036;-84
2023/08/19 09:12:35;;;;;;;31.30;17.20;;;;;;;24.72;100.00;100980.34;5087062;28;20050;-84
2023/08/19 09:15:04;;;;;;;40.00;17.48;;;;;;;24.69;100.00;100980.75;5088597;28;20071;-84
2023/08/19 09:17:32;;;;;;;38.35;19.58;;;;;;;24.49;100.00;100994.69;5087004;28;20073;-87
2023/08/19 09:19:57;;;;;;;34.78;18.50;;;;;;;24.09;100.00;101027.22;5089321;28;20032;-85
2023/08/19 09:22:24;;;;;;;35.90;18.02;;;;;;;24.07;100.00;101027.47;5064532;28;20024;-84
2023/08/19 09:24:53;;;;;;;30.25;17.15;;;;;;;24.04;100.00;101039.91;5083406;28;20020;-87
2023/08/19 09:27:29;;;;;;;31.02;18.58;;;;;;;24.02;100.00;101042.06;5085330;28;20051;-85
2023/08/19 09:29:54;;;;;;;40.03;19.83;;;;;;;24.10;100.00;101055.00;5081045;28;20032;-84
2023/08/19 09:32:27;;;;;;;38.92;19.10;;;;;;;24.11;100.00;101062.31;5082377;28;20031;-83
2023/08/19 09:35:14;;;;;;;32.72;19.25;;;;;;;24.13;100.00;101062.13;5084468;28;20051;-84
2023/08/19 09:37:41;;;;;;;36.25;18.83;;;;;;;24.14;100.00;101061.91;5085824;28;20347;-84
2023/08/19 09:40:11;;;;;;;38.35;18.88;;;;;;;24.18;100.00;101073.56;5086171;28;20108;-85
2023/08/19 09:42:38;;;;;;;32.50;19.20;;;;;;;24.29;100.00;101070.19;5081557;28;20131;-84
2023/08/19 09:45:05;;;;;;;37.78;18.65;;;;;;;24.31;100.00;101073.63;5083014;28;20032;-84
2023/08/19 09:47:44;;;;;;;32.67;18.58;;;;;;;24.33;100.00;101074.28;5082993;28;20063;-84
2023/08/19 09:50:09;;;;;;;37.25;19.52;;;;;;;24.47;100.00;101082.78;5083922;28;20040;-85
2023/08/19 09:52:35;;;;;;;36.17;20.30;;;;;;;24.45;100.00;101093.28;5083219;28;20143;-85
2023/08/19 09:55:00;;;;;;;34.90;19.88;;;;;;;24.57;100.00;101091.66;5066266;28;20074;-85
2023/08/19 09:57:32;;;;;;;42.70;21.02;;;;;;;24.65;100.00;101091.50;5086885;28;20077;-84
2023/08/19 09:59:59;;;;;;;35.27;20.43;;;;;;;24.68;100.00;101093.88;5082580;28;20324;-85
2023/08/19 10:02:24;;;;;;;36.10;19.70;;;;;;;24.73;100.00;101096.91;5083070;28;20050;-85
2023/08/19 10:04:50;;;;;;;35.30;19.63;;;;;;;24.82;100.00;101096.72;5082362;28;20761;-85
2023/08/19 10:07:22;;;;;;;42.72;21.15;;;;;;;24.94;100.00;101097.81;5089146;28;20546;-84
2023/08/19 10:09:50;;;;;;;40.93;19.80;;;;;;;25.05;100.00;101110.38;5087090;28;20107;-84
2023/08/19 10:12:17;;;;;;;31.00;19.02;;;;;;;24.99;100.00;101103.69;5085524;28;20502;-83
2023/08/19 10:14:48;;;;;;;38.28;19.75;;;;;;;25.05;100.00;101110.38;5086597;28;20473;-84
2023/08/19 10:17:14;;;;;;;32.05;19.25;;;;;;;25.11;100.00;101110.38;5088199;28;20050;-84
2023/08/19 10:19:45;;;;;;;31.70;18.33;;;;;;;25.25;100.00;101121.63;5081624;28;20021;-84
2023/08/19 10:22:13;;;;;;;36.20;18.50;;;;;;;25.19;100.00;101120.53;5063357;28;20715;-84
2023/08/19 10:24:41;;;;;;;36.05;19.30;;;;;;;25.24;100.00;101129.19;5075929;28;20016;-83
2023/08/19 10:27:18;;;;;;;36.63;20.15;;;;;;;25.41;100.00;101132.47;5084933;28;20079;-83
2023/08/19 10:29:48;;;;;;;33.90;19.70;;;;;;;25.42;100.00;101130.56;5080717;28;20031;-84
2023/08/19 10:32:32;;;;;;;34.20;19.05;;;;;;;25.45;100.00;101132.94;5087332;28;20042;-84
2023/08/19 10:35:09;;;;;;;32.10;20.75;;;;;;;25.42;100.00;101124.94;5067397;28;20036;-84
2023/08/19 10:37:41;;;;;;;36.47;20.85;;;;;;;25.45;100.00;101122.56;5060421;28;20040;-84
2023/08/19 10:40:17;;;;;;;37.17;20.30;;;;;;;25.53;100.00;101129.03;5082373;28;20032;-83
2023/08/19 10:42:56;;;;;;;36.58;20.60;;;;;;;25.66;100.00;101141.16;5067820;28;20530;-84
2023/08/19 10:45:22;;;;;;;32.47;20.23;;;;;;;25.74;100.00;101148.47;5082480;28;20067;-83
2023/08/19 10:47:51;;;;;;;37.47;20.80;;;;;;;25.75;100.00;101141.78;5071114;28;20046;-84
2023/08/19 10:50:18;;;;;;;37.90;22.35;;;;;;;25.75;100.00;101144.59;5082875;28;20028;-84
2023/08/19 10:53:06;;;;;;;38.60;22.08;;;;;;;25.58;100.00;101148.88;5083510;28;20020;-84
2023/08/19 10:56:12;;;;;;;36.70;21.52;;;;;;;25.60;100.00;101149.56;5086709;28;20069;-83
2023/08/19 10:58:37;;;;;;;46.38;24.38;;;;;;;25.63;100.00;101157.50;5053915;28;20050;-83
2023/08/19 11:01:03;;;;;;;37.42;23.30;;;;;;;25.68;100.00;101164.22;5082574;28;20119;-82